sensor_id;sensor_type;location;lat;lon;timestamp;pressure;altitude;pressure_sealevel;temperature;humidity
78986;BME280;68384;55.750;48.746;2023-08-01T00:01:01;98538.50;;;16.96;81.96
78986;BME280;68384;55.750;48.746;2023-08-01T00:02:04;98535.00;;;16.96;82.36
78986;BME280;68384;55.750;48.746;2023-08-01T00:03:09;98542.03;;;16.94;82.31
78986;BME280;68384;55.750;48.746;2023-08-01T00:04:12;98537.72;;;16.90;82.06
78986;BME280;68384;55.750;48.746;2023-08-01T00:05:16;98540.38;;;16.88;82.72
78986;BME280;68384;55.750;48.746;2023-08-01T00:06:18;98538.63;;;16.87;82.45
78986;BME280;68384;55.750;48.746;2023-08-01T00:07:25;98544.72;;;16.88;82.17
78986;BME280;68384;55.750;48.746;2023-08-01T00:08:28;98533.41;;;16.86;82.52
78986;BME280;68384;55.750;48.746;2023-08-01T00:09:32;98530.81;;;16.84;82.65
78986;BME280;68384;55.750;48.746;2023-08-01T00:10:35;98536.06;;;16.83;82.70
78986;BME280;68384;55.750;48.746;2023-08-01T00:11:39;98530.88;;;16.80;82.78
78986;BME280;68384;55.750;48.746;2023-08-01T00:12:42;98541.38;;;16.78;82.80
78986;BME280;68384;55.750;48.746;2023-08-01T00:13:45;98537.03;;;16.77;82.56
78986;BME280;68384;55.750;48.746;2023-08-01T00:14:50;98541.47;;;16.72;82.85
78986;BME280;68384;55.750;48.746;2023-08-01T00:15:54;98550.16;;;16.74;83.11
78986;BME280;68384;55.750;48.746;2023-08-01T00:17:09;98541.47;;;16.70;83.03
78986;BME280;68384;55.750;48.746;2023-08-01T00:18:12;98545.84;;;16.68;83.19
78986;BME280;68384;55.750;48.746;2023-08-01T00:19:15;98546.75;;;16.67;82.96
78986;BME280;68384;55.750;48.746;2023-08-01T00:20:19;98549.38;;;16.66;83.20
78986;BME280;68384;55.750;48.746;2023-08-01T00:21:22;98544.19;;;16.63;82.93
78986;BME280;68384;55.750;48.746;2023-08-01T00:22:26;98544.22;;;16.60;83.09
78986;BME280;68384;55.750;48.746;2023-08-01T00:23:29;98545.13;;;16.57;82.85
78986;BME280;68384;55.750;48.746;2023-08-01T00:24:33;98547.78;;;16.56;83.21
78986;BME280;68384;55.750;48.746;2023-08-01T00:25:36;98540.78;;;16.52;82.86
78986;BME280;68384;55.750;48.746;2023-08-01T00:26:40;98548.72;;;16.47;83.28
78986;BME280;68384;55.750;48.746;2023-08-01T00:27:43;98547.84;;;16.47;83.04
78986;BME280;68384;55.750;48.746;2023-08-01T00:28:47;98542.63;;;16.44;83.55
78986;BME280;68384;55.750;48.746;2023-08-01T00:29:52;98545.28;;;16.42;83.56
78986;BME280;68384;55.750;48.746;2023-08-01T00:31:02;98550.53;;;16.42;83.50
78986;BME280;68384;55.750;48.746;2023-08-01T00:32:05;98547.97;;;16.36;83.51
78986;BME280;68384;55.750;48.746;2023-08-01T00:33:09;98550.63;;;16.35;83.69
78986;BME280;68384;55.750;48.746;2023-08-01T00:34:12;98548.88;;;16.34;83.69
78986;BME280;68384;55.750;48.746;2023-08-01T00:35:16;98549.78;;;16.30;83.83
78986;BME280;68384;55.750;48.746;2023-08-01T00:36:19;98540.22;;;16.27;83.56
78986;BME280;68384;55.750;48.746;2023-08-01T00:37:23;98555.94;;;16.26;83.27
78986;BME280;68384;55.750;48.746;2023-08-01T00:38:26;98549.91;;;16.21;83.71
78986;BME280;68384;55.750;48.746;2023-08-01T00:39:30;98550.81;;;16.18;83.88
78986;BME280;68384;55.750;48.746;2023-08-01T00:40:33;98554.28;;;16.17;83.93
78986;BME280;68384;55.750;48.746;2023-08-01T00:41:37;98555.22;;;16.13;83.68
78986;BME280;68384;55.750;48.746;2023-08-01T00:42:41;98562.19;;;16.12;83.99
78986;BME280;68384;55.750;48.746;2023-08-01T00:43:44;98568.31;;;16.08;84.28
78986;BME280;68384;55.750;48.746;2023-08-01T00:44:47;98556.19;;;16.00;84.50
78986;BME280;68384;55.750;48.746;2023-08-01T00:45:54;98557.03;;;16.03;84.43
78986;BME280;68384;55.750;48.746;2023-08-01T00:46:58;98566.63;;;16.04;84.12
78986;BME280;68384;55.750;48.746;2023-08-01T00:48:02;98567.53;;;16.02;84.49
78986;BME280;68384;55.750;48.746;2023-08-01T00:49:05;98557.97;;;15.98;84.61
78986;BME280;68384;55.750;48.746;2023-08-01T00:50:10;98566.69;;;15.98;84.53
78986;BME280;68384;55.750;48.746;2023-08-01T00:51:14;98560.63;;;15.96;84.81
78986;BME280;68384;55.750;48.746;2023-08-01T00:52:17;98564.97;;;15.96;84.52
78986;BME280;68384;55.750;48.746;2023-08-01T00:53:20;98574.59;;;15.94;84.63
78986;BME280;68384;55.750;48.746;2023-08-01T00:54:24;98572.84;;;15.93;84.71
78986;BME280;68384;55.750;48.746;2023-08-01T00:55:29;98569.34;;;15.92;84.85
78986;BME280;68384;55.750;48.746;2023-08-01T00:56:33;98571.13;;;15.89;84.87
78986;BME280;68384;55.750;48.746;2023-08-01T00:57:37;98572.88;;;15.88;84.82
78986;BME280;68384;55.750;48.746;2023-08-01T00:58:40;98570.25;;;15.90;84.52
78986;BME280;68384;55.750;48.746;2023-08-01T00:59:44;98573.72;;;15.89;85.01
78986;BME280;68384;55.750;48.746;2023-08-01T01:00:47;98573.72;;;15.89;84.68
78986;BME280;68384;55.750;48.746;2023-08-01T01:01:53;98575.50;;;15.88;84.74
78986;BME280;68384;55.750;48.746;2023-08-01T01:02:56;98572.88;;;15.88;84.74
78986;BME280;68384;55.750;48.746;2023-08-01T01:04:00;98573.72;;;15.89;84.65
78986;BME280;68384;55.750;48.746;2023-08-01T01:05:03;98572.88;;;15.88;84.95
78986;BME280;68384;55.750;48.746;2023-08-01T01:06:11;98582.41;;;15.92;84.94
78986;BME280;68384;55.750;48.746;2023-08-01T01:07:19;98579.84;;;15.91;84.52
78986;BME280;68384;55.750;48.746;2023-08-01T01:08:24;98566.78;;;15.88;84.81
78986;BME280;68384;55.750;48.746;2023-08-01T01:09:28;98570.19;;;15.96;84.57
78986;BME280;68384;55.750;48.746;2023-08-01T01:10:34;98576.31;;;15.96;84.92
78986;BME280;68384;55.750;48.746;2023-08-01T01:11:37;98581.47;;;15.99;84.79
78986;BME280;68384;55.750;48.746;2023-08-01T01:12:41;98573.63;;;15.99;84.37
78986;BME280;68384;55.750;48.746;2023-08-01T01:13:45;98583.16;;;16.06;84.84
78986;BME280;68384;55.750;48.746;2023-08-01T01:14:49;98575.31;;;16.06;84.59
78986;BME280;68384;55.750;48.746;2023-08-01T01:15:51;98577.03;;;16.09;84.23
78986;BME280;68384;55.750;48.746;2023-08-01T01:16:57;98580.50;;;16.12;84.12
78986;BME280;68384;55.750;48.746;2023-08-01T01:18:00;98573.50;;;16.14;84.18
78986;BME280;68384;55.750;48.746;2023-08-01T01:19:07;98579.56;;;16.16;84.45
78986;BME280;68384;55.750;48.746;2023-08-01T01:20:10;98576.94;;;16.18;84.06
78986;BME280;68384;55.750;48.746;2023-08-01T01:21:28;98578.66;;;16.21;84.33
78986;BME280;68384;55.750;48.746;2023-08-01T01:22:50;98576.88;;;16.23;83.89
78986;BME280;68384;55.750;48.746;2023-08-01T01:23:55;98568.16;;;16.25;83.78
78986;BME280;68384;55.750;48.746;2023-08-01T01:25:00;98578.63;;;16.24;83.63
78986;BME280;68384;55.750;48.746;2023-08-01T01:26:06;98579.44;;;16.27;83.60
78986;BME280;68384;55.750;48.746;2023-08-01T01:27:10;98578.59;;;16.25;83.92
78986;BME280;68384;55.750;48.746;2023-08-01T01:28:15;98576.88;;;16.26;83.54
78986;BME280;68384;55.750;48.746;2023-08-01T01:29:18;98574.25;;;16.26;83.60
78986;BME280;68384;55.750;48.746;2023-08-01T01:30:25;98576.81;;;16.30;83.90
78986;BME280;68384;55.750;48.746;2023-08-01T01:31:28;98575.09;;;16.28;83.64
78986;BME280;68384;55.750;48.746;2023-08-01T01:32:34;98582.00;;;16.33;83.32
78986;BME280;68384;55.750;48.746;2023-08-01T01:33:36;98575.00;;;16.35;83.82
78986;BME280;68384;55.750;48.746;2023-08-01T01:34:40;98575.94;;;16.31;83.71
78986;BME280;68384;55.750;48.746;2023-08-01T01:35:43;98575.00;;;16.37;84.08
78986;BME280;68384;55.750;48.746;2023-08-01T01:36:48;98582.84;;;16.37;83.44
78986;BME280;68384;55.750;48.746;2023-08-01T01:37:51;98581.94;;;16.39;83.48
78986;BME280;68384;55.750;48.746;2023-08-01T01:38:54;98583.72;;;16.36;83.50
78986;BME280;68384;55.750;48.746;2023-08-01T01:39:58;98582.88;;;16.34;83.74
78986;BME280;68384;55.750;48.746;2023-08-01T01:41:01;98580.22;;;16.37;83.47
78986;BME280;68384;55.750;48.746;2023-08-01T01:42:06;98582.84;;;16.37;83.84
78986;BME280;68384;55.750;48.746;2023-08-01T01:43:09;98589.81;;;16.36;83.87
78986;BME280;68384;55.750;48.746;2023-08-01T01:44:13;98584.63;;;16.35;83.72
78986;BME280;68384;55.750;48.746;2023-08-01T01:45:16;98581.06;;;16.39;83.65
78986;BME280;68384;55.750;48.746;2023-08-01T01:46:20;98579.34;;;16.36;83.34
78986;BME280;68384;55.750;48.746;2023-08-01T01:47:22;98581.94;;;16.39;83.09
78986;BME280;68384;55.750;48.746;2023-08-01T01:48:27;98595.00;;;16.41;82.79
78986;BME280;68384;55.750;48.746;2023-08-01T01:49:30;98583.69;;;16.39;83.21
78986;BME280;68384;55.750;48.746;2023-08-01T01:50:34;98595.88;;;16.38;82.53
78986;BME280;68384;55.750;48.746;2023-08-01T01:51:37;98593.31;;;16.37;82.94
78986;BME280;68384;55.750;48.746;2023-08-01T01:52:42;98588.06;;;16.37;82.59
78986;BME280;68384;55.750;48.746;2023-08-01T01:53:45;98595.09;;;16.33;82.76
78986;BME280;68384;55.750;48.746;2023-08-01T01:54:49;98586.34;;;16.33;82.71
78986;BME280;68384;55.750;48.746;2023-08-01T01:55:52;98585.50;;;16.34;82.46
78986;BME280;68384;55.750;48.746;2023-08-01T01:56:56;98585.56;;;16.29;82.97
78986;BME280;68384;55.750;48.746;2023-08-01T01:57:58;98591.63;;;16.30;82.78
78986;BME280;68384;55.750;48.746;2023-08-01T01:59:02;98587.28;;;16.29;83.05
78986;BME280;68384;55.750;48.746;2023-08-01T02:00:06;98589.88;;;16.30;83.45
78986;BME280;68384;55.750;48.746;2023-08-01T02:01:15;98591.69;;;16.27;83.22
78986;BME280;68384;55.750;48.746;2023-08-01T02:02:20;98583.81;;;16.28;82.94
78986;BME280;68384;55.750;48.746;2023-08-01T02:03:24;98587.31;;;16.24;82.84
78986;BME280;68384;55.750;48.746;2023-08-01T02:04:27;98586.47;;;16.24;83.24
78986;BME280;68384;55.750;48.746;2023-08-01T02:05:31;98591.72;;;16.24;83.03
78986;BME280;68384;55.750;48.746;2023-08-01T02:06:34;98587.34;;;16.23;83.31
78986;BME280;68384;55.750;48.746;2023-08-01T02:07:38;98592.59;;;16.23;83.06
78986;BME280;68384;55.750;48.746;2023-08-01T02:08:42;98588.22;;;16.23;83.04
78986;BME280;68384;55.750;48.746;2023-08-01T02:09:46;98581.28;;;16.21;83.00
78986;BME280;68384;55.750;48.746;2023-08-01T02:10:49;98593.44;;;16.22;82.96
78986;BME280;68384;55.750;48.746;2023-08-01T02:11:53;98583.88;;;16.24;82.45
78986;BME280;68384;55.750;48.746;2023-08-01T02:12:56;98587.38;;;16.21;82.66
78986;BME280;68384;55.750;48.746;2023-08-01T02:14:01;98585.59;;;16.23;82.31
78986;BME280;68384;55.750;48.746;2023-08-01T02:15:07;98588.25;;;16.20;82.72
78986;BME280;68384;55.750;48.746;2023-08-01T02:16:11;98583.03;;;16.18;82.77
78986;BME280;68384;55.750;48.746;2023-08-01T02:17:14;98586.50;;;16.21;82.39
78986;BME280;68384;55.750;48.746;2023-08-01T02:18:18;98583.06;;;16.17;82.51
78986;BME280;68384;55.750;48.746;2023-08-01T02:19:21;98581.31;;;16.17;82.69
78986;BME280;68384;55.750;48.746;2023-08-01T02:20:25;98586.53;;;16.17;82.32
78986;BME280;68384;55.750;48.746;2023-08-01T02:21:30;98585.69;;;16.15;82.83
78986;BME280;68384;55.750;48.746;2023-08-01T02:22:34;98586.56;;;16.14;82.95
78986;BME280;68384;55.750;48.746;2023-08-01T02:23:37;98585.72;;;16.11;82.76
78986;BME280;68384;55.750;48.746;2023-08-01T02:24:43;98586.59;;;16.11;83.19
78986;BME280;68384;55.750;48.746;2023-08-01T02:25:45;98583.97;;;16.11;82.96
78986;BME280;68384;55.750;48.746;2023-08-01T02:26:50;98586.59;;;16.11;82.75
78986;BME280;68384;55.750;48.746;2023-08-01T02:27:53;98584.84;;;16.10;82.83
78986;BME280;68384;55.750;48.746;2023-08-01T02:28:56;98583.97;;;16.11;83.21
78986;BME280;68384;55.750;48.746;2023-08-01T02:29:59;98578.81;;;16.07;82.95
78986;BME280;68384;55.750;48.746;2023-08-01T02:31:03;98580.53;;;16.08;83.16
78986;BME280;68384;55.750;48.746;2023-08-01T02:32:07;98578.78;;;16.08;82.88
78986;BME280;68384;55.750;48.746;2023-08-01T02:33:10;98571.00;;;16.02;83.20
78986;BME280;68384;55.750;48.746;2023-08-01T02:34:14;98583.19;;;16.03;83.21
78986;BME280;68384;55.750;48.746;2023-08-01T02:35:17;98574.53;;;15.98;82.46
78986;BME280;68384;55.750;48.746;2023-08-01T02:36:21;98574.47;;;16.03;82.88
78986;BME280;68384;55.750;48.746;2023-08-01T02:37:24;98582.38;;;15.97;82.99
78986;BME280;68384;55.750;48.746;2023-08-01T02:38:27;98589.28;;;16.04;82.68
78986;BME280;68384;55.750;48.746;2023-08-01T02:39:30;98579.69;;;16.04;82.83
78986;BME280;68384;55.750;48.746;2023-08-01T02:40:36;98581.41;;;16.07;82.70
78986;BME280;68384;55.750;48.746;2023-08-01T02:41:38;98578.78;;;16.10;83.00
78986;BME280;68384;55.750;48.746;2023-08-01T02:42:44;98571.78;;;16.10;83.00
78986;BME280;68384;55.750;48.746;2023-08-01T02:43:47;98577.00;;;16.12;82.83
78986;BME280;68384;55.750;48.746;2023-08-01T02:44:51;98579.59;;;16.13;82.45
78986;BME280;68384;55.750;48.746;2023-08-01T02:45:53;98579.63;;;16.12;82.65
78986;BME280;68384;55.750;48.746;2023-08-01T02:46:58;98585.69;;;16.14;82.81
78986;BME280;68384;55.750;48.746;2023-08-01T02:48:00;98576.13;;;16.11;82.29
78986;BME280;68384;55.750;48.746;2023-08-01T02:49:05;98583.09;;;16.15;82.27
78986;BME280;68384;55.750;48.746;2023-08-01T02:50:08;98576.97;;;16.13;82.32
78986;BME280;68384;55.750;48.746;2023-08-01T02:51:12;98573.53;;;16.11;82.30
78986;BME280;68384;55.750;48.746;2023-08-01T02:52:15;98573.53;;;16.11;82.70
78986;BME280;68384;55.750;48.746;2023-08-01T02:53:19;98571.75;;;16.15;82.19
78986;BME280;68384;55.750;48.746;2023-08-01T02:54:22;98574.38;;;16.15;82.44
78986;BME280;68384;55.750;48.746;2023-08-01T02:55:26;98578.66;;;16.19;81.98
78986;BME280;68384;55.750;48.746;2023-08-01T02:56:30;98570.81;;;16.21;82.27
78986;BME280;68384;55.750;48.746;2023-08-01T02:57:34;98570.81;;;16.21;81.91
78986;BME280;68384;55.750;48.746;2023-08-01T02:58:37;98568.16;;;16.22;81.96
78986;BME280;68384;55.750;48.746;2023-08-01T02:59:41;98572.53;;;16.22;81.47
78986;BME280;68384;55.750;48.746;2023-08-01T03:00:43;98566.38;;;16.29;81.76
78986;BME280;68384;55.750;48.746;2023-08-01T03:01:50;98568.94;;;16.35;81.71
78986;BME280;68384;55.750;48.746;2023-08-01T03:02:53;98566.31;;;16.35;81.56
78986;BME280;68384;55.750;48.746;2023-08-01T03:03:57;98580.19;;;16.38;81.57
78986;BME280;68384;55.750;48.746;2023-08-01T03:04:59;98579.31;;;16.38;80.94
78986;BME280;68384;55.750;48.746;2023-08-01T03:06:07;98580.19;;;16.38;81.26
78986;BME280;68384;55.750;48.746;2023-08-01T03:07:10;98583.63;;;16.45;81.36
78986;BME280;68384;55.750;48.746;2023-08-01T03:08:12;98580.09;;;16.47;81.02
78986;BME280;68384;55.750;48.746;2023-08-01T03:09:16;98581.78;;;16.53;80.95
78986;BME280;68384;55.750;48.746;2023-08-01T03:10:19;98574.81;;;16.55;80.64
78986;BME280;68384;55.750;48.746;2023-08-01T03:11:39;98583.50;;;16.58;80.13
78986;BME280;68384;55.750;48.746;2023-08-01T03:12:41;98579.97;;;16.61;80.35
78986;BME280;68384;55.750;48.746;2023-08-01T03:13:46;98569.47;;;16.64;80.29
78986;BME280;68384;55.750;48.746;2023-08-01T03:14:49;98570.41;;;16.58;79.87
78986;BME280;68384;55.750;48.746;2023-08-01T03:15:53;98572.06;;;16.67;79.95
78986;BME280;68384;55.750;48.746;2023-08-01T03:16:57;98574.63;;;16.68;79.97
78986;BME280;68384;55.750;48.746;2023-08-01T03:18:01;98556.50;;;16.55;79.83
78986;BME280;68384;55.750;48.746;2023-08-01T03:19:04;98581.69;;;16.65;79.47
78986;BME280;68384;55.750;48.746;2023-08-01T03:20:08;98588.66;;;16.64;79.88
78986;BME280;68384;55.750;48.746;2023-08-01T03:21:13;98580.78;;;16.67;80.01
78986;BME280;68384;55.750;48.746;2023-08-01T03:22:17;98572.97;;;16.63;79.54
78986;BME280;68384;55.750;48.746;2023-08-01T03:23:20;98585.06;;;16.71;79.87
78986;BME280;68384;55.750;48.746;2023-08-01T03:24:24;98590.25;;;16.77;79.45
78986;BME280;68384;55.750;48.746;2023-08-01T03:25:27;98588.50;;;16.78;79.60
78986;BME280;68384;55.750;48.746;2023-08-01T03:26:31;98584.94;;;16.84;79.55
78986;BME280;68384;55.750;48.746;2023-08-01T03:27:35;98592.72;;;16.88;78.87
78986;BME280;68384;55.750;48.746;2023-08-01T03:28:39;98590.94;;;16.92;78.85
78986;BME280;68384;55.750;48.746;2023-08-01T03:29:42;98599.59;;;16.95;78.62
78986;BME280;68384;55.750;48.746;2023-08-01T03:30:46;98594.31;;;17.00;78.68
78986;BME280;68384;55.750;48.746;2023-08-01T03:31:52;98589.97;;;16.99;78.58
78986;BME280;68384;55.750;48.746;2023-08-01T03:32:56;98599.53;;;17.01;78.69
78986;BME280;68384;55.750;48.746;2023-08-01T03:33:59;98595.94;;;17.07;78.04
78986;BME280;68384;55.750;48.746;2023-08-01T03:35:02;98589.00;;;17.04;78.18
78986;BME280;68384;55.750;48.746;2023-08-01T03:36:06;98595.03;;;17.09;77.90
78986;BME280;68384;55.750;48.746;2023-08-01T03:37:09;98599.38;;;17.13;78.07
78986;BME280;68384;55.750;48.746;2023-08-01T03:38:13;98591.56;;;17.09;77.88
78986;BME280;68384;55.750;48.746;2023-08-01T03:39:16;98607.19;;;17.15;77.98
78986;BME280;68384;55.750;48.746;2023-08-01T03:40:19;98598.53;;;17.11;77.80
78986;BME280;68384;55.750;48.746;2023-08-01T03:41:23;98603.69;;;17.14;77.87
78986;BME280;68384;55.750;48.746;2023-08-01T03:42:26;98597.59;;;17.15;77.47
78986;BME280;68384;55.750;48.746;2023-08-01T03:43:31;98607.06;;;17.22;77.88
78986;BME280;68384;55.750;48.746;2023-08-01T03:44:34;98606.19;;;17.23;77.67
78986;BME280;68384;55.750;48.746;2023-08-01T03:45:38;98604.34;;;17.31;77.73
78986;BME280;68384;55.750;48.746;2023-08-01T03:46:42;98586.03;;;17.28;77.67
78986;BME280;68384;55.750;48.746;2023-08-01T03:47:46;98604.16;;;17.44;76.83
78986;BME280;68384;55.750;48.746;2023-08-01T03:48:49;98607.59;;;17.47;76.67
78986;BME280;68384;55.750;48.746;2023-08-01T03:49:52;98605.78;;;17.54;76.59
78986;BME280;68384;55.750;48.746;2023-08-01T03:50:55;98605.69;;;17.60;76.60
78986;BME280;68384;55.750;48.746;2023-08-01T03:52:01;98609.16;;;17.62;76.49
78986;BME280;68384;55.750;48.746;2023-08-01T03:53:04;98603.00;;;17.64;76.27
78986;BME280;68384;55.750;48.746;2023-08-01T03:54:08;98605.53;;;17.70;76.01
78986;BME280;68384;55.750;48.746;2023-08-01T03:55:15;98605.53;;;17.70;75.74
78986;BME280;68384;55.750;48.746;2023-08-01T03:56:19;98610.69;;;17.75;75.77
78986;BME280;68384;55.750;48.746;2023-08-01T03:57:22;98611.53;;;17.77;75.81
78986;BME280;68384;55.750;48.746;2023-08-01T03:58:26;98611.41;;;17.84;75.67
78986;BME280;68384;55.750;48.746;2023-08-01T03:59:30;98612.25;;;17.86;75.91
78986;BME280;68384;55.750;48.746;2023-08-01T04:00:34;98617.50;;;17.86;75.48
78986;BME280;68384;55.750;48.746;2023-08-01T04:01:37;98611.47;;;17.81;75.29
78986;BME280;68384;55.750;48.746;2023-08-01T04:02:41;98615.69;;;17.90;75.39
78986;BME280;68384;55.750;48.746;2023-08-01T04:03:47;98614.81;;;17.89;75.41
78986;BME280;68384;55.750;48.746;2023-08-01T04:04:51;98613.84;;;17.95;75.19
78986;BME280;68384;55.750;48.746;2023-08-01T04:05:54;98616.47;;;17.95;75.36
78986;BME280;68384;55.750;48.746;2023-08-01T04:06:58;98612.16;;;17.91;75.54
78986;BME280;68384;55.750;48.746;2023-08-01T04:08:01;98616.47;;;17.93;74.97
78986;BME280;68384;55.750;48.746;2023-08-01T04:09:05;98608.50;;;18.01;74.77
78986;BME280;68384;55.750;48.746;2023-08-01T04:10:09;98605.84;;;18.04;75.03
78986;BME280;68384;55.750;48.746;2023-08-01T04:11:13;98603.19;;;18.06;75.06
78986;BME280;68384;55.750;48.746;2023-08-01T04:12:16;98609.25;;;18.09;74.57
78986;BME280;68384;55.750;48.746;2023-08-01T04:13:20;98601.41;;;18.06;74.42
78986;BME280;68384;55.750;48.746;2023-08-01T04:14:23;98604.78;;;18.13;74.14
78986;BME280;68384;55.750;48.746;2023-08-01T04:15:28;98604.78;;;18.14;74.03
78986;BME280;68384;55.750;48.746;2023-08-01T04:16:32;98597.69;;;18.19;74.00
78986;BME280;68384;55.750;48.746;2023-08-01T04:17:36;98596.03;;;18.15;74.40
78986;BME280;68384;55.750;48.746;2023-08-01T04:18:39;98599.38;;;18.23;73.82
78986;BME280;68384;55.750;48.746;2023-08-01T04:19:43;98604.47;;;18.29;73.85
78986;BME280;68384;55.750;48.746;2023-08-01T04:20:46;98600.09;;;18.30;73.58
78986;BME280;68384;55.750;48.746;2023-08-01T04:21:50;98600.94;;;18.32;73.40
78986;BME280;68384;55.750;48.746;2023-08-01T04:22:52;98597.47;;;18.30;73.33
78986;BME280;68384;55.750;48.746;2023-08-01T04:23:56;98600.06;;;18.33;73.57
78986;BME280;68384;55.750;48.746;2023-08-01T04:25:00;98599.94;;;18.40;73.52
78986;BME280;68384;55.750;48.746;2023-08-01T04:26:05;98605.06;;;18.46;73.62
78986;BME280;68384;55.750;48.746;2023-08-01T04:27:08;98598.03;;;18.50;72.95
78986;BME280;68384;55.750;48.746;2023-08-01T04:28:12;98592.66;;;18.55;73.08
78986;BME280;68384;55.750;48.746;2023-08-01T04:29:15;98594.16;;;18.68;72.96
78986;BME280;68384;55.750;48.746;2023-08-01T04:30:20;98597.47;;;18.76;72.64
78986;BME280;68384;55.750;48.746;2023-08-01T04:31:24;98595.72;;;18.78;72.90
78986;BME280;68384;55.750;48.746;2023-08-01T04:32:28;98590.34;;;18.82;72.32
78986;BME280;68384;55.750;48.746;2023-08-01T04:33:31;98596.38;;;18.87;72.32
78986;BME280;68384;55.750;48.746;2023-08-01T04:34:35;98596.53;;;18.80;72.45
78986;BME280;68384;55.750;48.746;2023-08-01T04:35:38;98590.22;;;18.88;72.22
78986;BME280;68384;55.750;48.746;2023-08-01T04:36:41;98592.75;;;18.93;72.16
78986;BME280;68384;55.750;48.746;2023-08-01T04:37:44;98600.63;;;18.94;72.67
78986;BME280;68384;55.750;48.746;2023-08-01T04:38:48;98592.63;;;18.99;72.40
78986;BME280;68384;55.750;48.746;2023-08-01T04:39:51;98594.28;;;19.03;72.01
78986;BME280;68384;55.750;48.746;2023-08-01T04:40:55;98591.00;;;18.93;71.88
78986;BME280;68384;55.750;48.746;2023-08-01T04:41:58;98587.31;;;19.02;71.94
78986;BME280;68384;55.750;48.746;2023-08-01T04:43:02;98583.72;;;19.06;71.42
78986;BME280;68384;55.750;48.746;2023-08-01T04:44:05;98588.09;;;19.05;71.27
78986;BME280;68384;55.750;48.746;2023-08-01T04:45:09;98584.50;;;19.09;71.26
78986;BME280;68384;55.750;48.746;2023-08-01T04:46:12;98581.72;;;19.17;71.45
78986;BME280;68384;55.750;48.746;2023-08-01T04:47:18;98587.78;;;19.19;71.14
78986;BME280;68384;55.750;48.746;2023-08-01T04:48:21;98583.34;;;19.24;70.69
78986;BME280;68384;55.750;48.746;2023-08-01T04:49:24;98586.69;;;19.31;70.75
78986;BME280;68384;55.750;48.746;2023-08-01T04:50:28;98585.81;;;19.30;69.94
78986;BME280;68384;55.750;48.746;2023-08-01T04:51:31;98589.31;;;19.32;69.51
78986;BME280;68384;55.750;48.746;2023-08-01T04:52:35;98588.38;;;19.33;69.11
78986;BME280;68384;55.750;48.746;2023-08-01T04:53:37;98591.06;;;19.32;70.05
78986;BME280;68384;55.750;48.746;2023-08-01T04:54:41;98585.66;;;19.38;69.61
78986;BME280;68384;55.750;48.746;2023-08-01T04:55:44;98585.72;;;19.35;69.76
78986;BME280;68384;55.750;48.746;2023-08-01T04:56:48;98586.50;;;19.38;69.44
78986;BME280;68384;55.750;48.746;2023-08-01T04:57:51;98586.31;;;19.47;68.88
78986;BME280;68384;55.750;48.746;2023-08-01T04:58:54;98591.34;;;19.56;68.90
78986;BME280;68384;55.750;48.746;2023-08-01T04:59:58;98591.38;;;19.55;68.69
78986;BME280;68384;55.750;48.746;2023-08-01T05:01:01;98593.22;;;19.51;68.52
78986;BME280;68384;55.750;48.746;2023-08-01T05:02:04;98594.84;;;19.57;68.10
78986;BME280;68384;55.750;48.746;2023-08-01T05:03:10;98586.91;;;19.58;68.55
78986;BME280;68384;55.750;48.746;2023-08-01T05:04:14;98575.44;;;19.62;68.30
78986;BME280;68384;55.750;48.746;2023-08-01T05:05:17;98592.97;;;19.62;67.44
78986;BME280;68384;55.750;48.746;2023-08-01T05:06:21;98586.66;;;19.69;67.03
78986;BME280;68384;55.750;48.746;2023-08-01T05:07:25;98594.72;;;19.61;66.89
78986;BME280;68384;55.750;48.746;2023-08-01T05:08:28;98588.69;;;19.58;66.79
78986;BME280;68384;55.750;48.746;2023-08-01T05:09:32;98599.31;;;19.52;66.25
78986;BME280;68384;55.750;48.746;2023-08-01T05:10:35;98588.91;;;19.49;66.22
78986;BME280;68384;55.750;48.746;2023-08-01T05:11:38;98589.88;;;19.45;67.18
78986;BME280;68384;55.750;48.746;2023-08-01T05:12:41;98584.50;;;19.49;67.16
78986;BME280;68384;55.750;48.746;2023-08-01T05:13:45;98600.06;;;19.58;67.28
78986;BME280;68384;55.750;48.746;2023-08-01T05:14:48;98592.97;;;19.62;66.96
78986;BME280;68384;55.750;48.746;2023-08-01T05:15:52;98598.94;;;19.68;67.40
78986;BME280;68384;55.750;48.746;2023-08-01T05:16:55;98594.25;;;19.46;66.90
78986;BME280;68384;55.750;48.746;2023-08-01T05:17:59;98600.00;;;19.61;66.47
78986;BME280;68384;55.750;48.746;2023-08-01T05:19:03;98598.91;;;19.70;65.81
78986;BME280;68384;55.750;48.746;2023-08-01T05:20:08;98598.59;;;19.82;65.68
78986;BME280;68384;55.750;48.746;2023-08-01T05:21:11;98607.25;;;19.87;65.10
78986;BME280;68384;55.750;48.746;2023-08-01T05:22:15;98597.63;;;19.86;64.87
78986;BME280;68384;55.750;48.746;2023-08-01T05:23:18;98602.84;;;19.88;64.72
78986;BME280;68384;55.750;48.746;2023-08-01T05:24:21;98600.94;;;19.94;64.48
78986;BME280;68384;55.750;48.746;2023-08-01T05:25:24;98604.44;;;19.95;64.24
78986;BME280;68384;55.750;48.746;2023-08-01T05:26:28;98607.88;;;19.98;64.33
78986;BME280;68384;55.750;48.746;2023-08-01T05:27:31;98608.78;;;19.96;64.45
78986;BME280;68384;55.750;48.746;2023-08-01T05:28:36;98613.81;;;20.05;64.44
78986;BME280;68384;55.750;48.746;2023-08-01T05:29:39;98614.81;;;20.01;64.66
78986;BME280;68384;55.750;48.746;2023-08-01T05:30:43;98600.34;;;19.83;65.50
78986;BME280;68384;55.750;48.746;2023-08-01T05:31:46;98615.03;;;19.92;64.90
78986;BME280;68384;55.750;48.746;2023-08-01T05:32:50;98614.38;;;19.82;64.70
78986;BME280;68384;55.750;48.746;2023-08-01T05:33:52;98623.19;;;19.81;64.81
78986;BME280;68384;55.750;48.746;2023-08-01T05:34:58;98615.38;;;19.78;65.19